createdAt,value
2018-02-19T00:01:28.778Z,14.05
2018-02-19T00:03:55.369Z,13.57
2018-02-19T00:06:21.956Z,14.43
2018-02-19T00:08:48.659Z,13.45
2018-02-19T00:11:15.253Z,14.50
2018-02-19T00:13:41.838Z,13.85
2018-02-19T00:16:08.433Z,14.63
2018-02-19T00:18:35.042Z,14.32
2018-02-19T00:21:01.644Z,13.15
2018-02-19T00:23:28.252Z,15.35
2018-02-19T00:25:54.834Z,15.23
2018-02-19T00:28:21.420Z,15.25
2018-02-19T00:30:48.022Z,13.50
2018-02-19T00:33:14.606Z,14.70
2018-02-19T00:35:41.198Z,13.60
2018-02-19T00:38:07.787Z,14.95
2018-02-19T00:40:34.380Z,14.77
2018-02-19T00:43:00.991Z,15.77
2018-02-19T00:45:27.568Z,13.95
2018-02-19T00:47:54.156Z,14.25
2018-02-19T00:50:20.750Z,14.80
2018-02-19T00:52:47.359Z,13.50
2018-02-19T00:55:13.954Z,13.73
2018-02-19T00:57:40.539Z,13.68
2018-02-19T01:00:07.132Z,14.60
2018-02-19T01:02:33.721Z,15.07
2018-02-19T01:05:00.312Z,14.38
2018-02-19T01:07:26.910Z,14.07
2018-02-19T01:09:53.501Z,13.80
2018-02-19T01:12:20.105Z,14.65
2018-02-19T01:14:46.694Z,14.00
2018-02-19T01:17:13.287Z,15.05
2018-02-19T01:19:39.879Z,13.93
2018-02-19T01:22:06.471Z,14.60
2018-02-19T01:24:33.061Z,15.07
2018-02-19T01:26:59.680Z,14.77
2018-02-19T01:29:26.279Z,15.02
2018-02-19T01:31:52.864Z,15.23
2018-02-19T01:34:19.454Z,14.38
2018-02-19T01:36:46.041Z,13.98
2018-02-19T01:39:12.855Z,14.80
2018-02-19T01:41:39.437Z,13.73
2018-02-19T01:44:06.029Z,14.02
2018-02-19T01:46:32.643Z,14.20
2018-02-19T01:48:59.226Z,13.68
2018-02-19T01:51:25.810Z,14.02
2018-02-19T01:53:52.407Z,13.23
2018-02-19T01:56:18.996Z,15.40
2018-02-19T01:58:45.592Z,14.68
2018-02-19T02:01:12.192Z,12.65
2018-02-19T02:03:38.777Z,16.25
2018-02-19T02:06:05.360Z,15.68
2018-02-19T02:08:31.953Z,15.57
2018-02-19T02:10:58.646Z,15.10
2018-02-19T02:13:25.248Z,14.85
2018-02-19T02:15:51.836Z,15.10
2018-02-19T02:18:18.445Z,14.50
2018-02-19T02:20:45.032Z,15.20
2018-02-19T02:23:11.613Z,12.88
2018-02-19T02:25:38.563Z,13.70
2018-02-19T02:28:05.147Z,14.13
2018-02-19T02:30:31.721Z,13.73
2018-02-19T02:32:58.318Z,16.00
2018-02-19T02:35:24.912Z,13.68
2018-02-19T02:37:51.505Z,13.60
2018-02-19T02:40:18.098Z,15.50
2018-02-19T02:42:44.692Z,14.87
2018-02-19T02:45:11.273Z,14.68
2018-02-19T02:47:37.868Z,14.77
2018-02-19T02:50:04.451Z,16.00
2018-02-19T02:52:31.040Z,14.35
2018-02-19T02:54:57.945Z,15.68
2018-02-19T02:57:24.532Z,15.85
2018-02-19T02:59:51.120Z,14.48
2018-02-19T03:02:17.708Z,15.40
2018-02-19T03:04:44.306Z,14.23
2018-02-19T03:07:10.907Z,16.77
2018-02-19T03:09:37.499Z,14.75
2018-02-19T03:12:04.089Z,15.23
2018-02-19T03:14:30.964Z,16.20
2018-02-19T03:16:57.557Z,14.45
2018-02-19T03:19:24.136Z,13.40
2018-02-19T03:21:50.739Z,15.90
2018-02-19T03:24:17.321Z,15.25
2018-02-19T03:26:43.913Z,13.57
2018-02-19T03:29:10.497Z,14.60
2018-02-19T03:31:37.088Z,14.68
2018-02-19T03:34:03.700Z,15.13
2018-02-19T03:36:30.288Z,14.87
2018-02-19T03:38:56.882Z,15.73
2018-02-19T03:41:23.485Z,14.27
2018-02-19T03:43:50.080Z,13.75
2018-02-19T03:46:16.665Z,14.85
2018-02-19T03:48:43.263Z,15.80
2018-02-19T03:51:09.858Z,14.55
2018-02-19T03:53:36.448Z,14.20
2018-02-19T03:56:03.352Z,16.12
2018-02-19T03:58:29.932Z,14.27
2018-02-19T04:00:56.516Z,13.98
2018-02-19T04:03:23.122Z,16.05
2018-02-19T04:05:49.699Z,15.57
2018-02-19T04:08:16.275Z,14.27
2018-02-19T04:10:42.879Z,14.40
2018-02-19T04:13:09.467Z,15.48
2018-02-19T04:15:36.052Z,15.07
2018-02-19T04:18:02.655Z,15.30
2018-02-19T04:20:29.240Z,16.10
2018-02-19T04:22:55.819Z,14.73
2018-02-19T04:25:22.517Z,13.95
2018-02-19T04:27:49.092Z,15.63
2018-02-19T04:30:15.683Z,14.50
2018-02-19T04:32:42.304Z,14.93
2018-02-19T04:35:08.885Z,14.45
2018-02-19T04:37:35.481Z,14.65
2018-02-19T04:40:02.392Z,15.18
2018-02-19T04:42:28.968Z,14.87
2018-02-19T04:44:57.248Z,14.45
2018-02-19T04:47:23.836Z,15.43
2018-02-19T04:49:50.447Z,14.93
2018-02-19T04:52:17.016Z,15.85
2018-02-19T04:54:43.603Z,14.80
2018-02-19T04:57:10.191Z,15.82
2018-02-19T04:59:36.772Z,14.55
2018-02-19T05:02:03.352Z,14.75
2018-02-19T05:04:29.935Z,16.33
2018-02-19T05:06:56.518Z,14.90
2018-02-19T05:09:23.283Z,14.57
2018-02-19T05:11:49.860Z,14.02
2018-02-19T05:14:16.445Z,16.08
2018-02-19T05:16:43.571Z,15.10
2018-02-19T05:19:10.159Z,14.48
2018-02-19T05:21:36.747Z,15.05
2018-02-19T05:24:03.358Z,15.18
2018-02-19T05:26:29.936Z,13.95
2018-02-19T05:28:56.528Z,14.30
2018-02-19T05:31:23.108Z,15.60
2018-02-19T05:33:49.691Z,15.68
2018-02-19T05:36:16.284Z,15.07
2018-02-19T05:38:42.861Z,15.57
2018-02-19T05:41:09.450Z,16.35
2018-02-19T05:43:36.039Z,14.70
2018-02-19T05:46:02.620Z,15.25
2018-02-19T05:48:29.227Z,14.25
2018-02-19T05:50:55.807Z,14.45
2018-02-19T05:53:22.391Z,15.75
2018-02-19T05:55:49.256Z,17.75
2018-02-19T05:58:15.839Z,17.80
2018-02-19T06:00:42.415Z,16.20
2018-02-19T06:03:09.240Z,15.85
2018-02-19T06:05:35.821Z,16.70
2018-02-19T06:08:02.399Z,16.00
2018-02-19T06:10:29.091Z,15.02
2018-02-19T06:12:55.679Z,15.48
2018-02-19T06:15:22.259Z,15.00
2018-02-19T06:17:49.119Z,15.32
2018-02-19T06:20:15.699Z,15.35
2018-02-19T06:22:42.293Z,17.42
2018-02-19T06:25:08.875Z,15.30
2018-02-19T06:27:35.492Z,15.90
2018-02-19T06:30:02.080Z,16.02
2018-02-19T06:32:28.663Z,16.35
2018-02-19T06:34:55.246Z,16.12
2018-02-19T06:37:21.840Z,17.20
2018-02-19T06:39:48.425Z,17.37
2018-02-19T06:42:15.008Z,17.12
2018-02-19T06:44:41.611Z,16.83
2018-02-19T06:47:08.203Z,16.45
2018-02-19T06:49:34.802Z,16.17
2018-02-19T06:52:01.387Z,15.75
2018-02-19T06:54:27.967Z,16.12
2018-02-19T06:56:54.548Z,17.00
2018-02-19T06:59:21.155Z,18.05
2018-02-19T07:01:47.734Z,16.58
2018-02-19T07:04:14.320Z,16.23
2018-02-19T07:06:40.904Z,16.75
2018-02-19T07:09:07.492Z,15.80
2018-02-19T07:11:34.072Z,17.00
2018-02-19T07:14:00.654Z,16.65
2018-02-19T07:16:27.236Z,16.95
2018-02-19T07:18:53.827Z,15.90
2018-02-19T07:21:20.402Z,16.30
2018-02-19T07:23:46.983Z,17.45
2018-02-19T07:26:13.567Z,18.42
2018-02-19T07:28:40.150Z,16.98
2018-02-19T07:31:06.756Z,17.40
2018-02-19T07:33:33.332Z,17.55
2018-02-19T07:35:59.918Z,19.55
2018-02-19T07:38:26.518Z,17.37
2018-02-19T07:40:53.103Z,17.42
2018-02-19T07:43:19.687Z,17.12
2018-02-19T07:45:46.307Z,16.92
2018-02-19T07:48:12.886Z,16.80
2018-02-19T07:50:39.466Z,19.10
2018-02-19T07:53:06.147Z,16.52
2018-02-19T07:55:32.728Z,18.80
2018-02-19T07:57:59.312Z,19.33
2018-02-19T08:00:25.916Z,19.52
2018-02-19T08:02:52.496Z,18.77
2018-02-19T08:05:19.075Z,19.23
2018-02-19T08:07:45.673Z,18.77
2018-02-19T08:10:12.260Z,19.67
2018-02-19T08:12:38.847Z,21.00
2018-02-19T08:15:05.437Z,21.30
2018-02-19T08:17:32.019Z,21.85
2018-02-19T08:19:58.611Z,21.62
2018-02-19T08:22:25.196Z,21.62
2018-02-19T08:24:51.781Z,22.45
2018-02-19T08:27:18.384Z,22.23
2018-02-19T08:29:45.022Z,24.52
2018-02-19T08:32:11.552Z,23.62
2018-02-19T08:34:38.147Z,24.48
2018-02-19T08:37:04.731Z,23.98
2018-02-19T08:39:31.330Z,23.55
2018-02-19T08:41:57.903Z,24.55
2018-02-19T08:44:24.495Z,25.00
2018-02-19T08:46:51.080Z,26.52
2018-02-19T08:49:17.672Z,23.48
2018-02-19T08:51:44.280Z,25.58
2018-02-19T08:54:10.872Z,25.67
2018-02-19T08:56:37.463Z,26.52
2018-02-19T08:59:04.057Z,26.05
2018-02-19T09:01:30.630Z,26.00
2018-02-19T09:03:57.214Z,24.00
2018-02-19T09:06:23.787Z,24.70
2018-02-19T09:08:50.366Z,28.27
2018-02-19T09:11:17.236Z,25.67
2018-02-19T09:13:43.810Z,23.67
2018-02-19T09:16:10.392Z,26.27
2018-02-19T09:18:36.966Z,24.50
2018-02-19T09:21:03.564Z,26.30
2018-02-19T09:23:30.144Z,24.97
2018-02-19T09:25:56.720Z,26.73
2018-02-19T09:28:23.411Z,24.07
2018-02-19T09:30:49.991Z,25.93
2018-02-19T09:33:16.572Z,25.80
2018-02-19T09:35:43.158Z,25.00
2018-02-19T09:38:09.778Z,26.00
2018-02-19T09:40:36.335Z,28.60
2018-02-19T09:43:02.916Z,26.53
2018-02-19T09:45:29.499Z,27.80
2018-02-19T09:47:56.096Z,23.87
2018-02-19T09:50:22.681Z,27.33
2018-02-19T09:52:49.255Z,26.43
2018-02-19T09:55:15.935Z,26.23
2018-02-19T09:57:42.512Z,27.50
2018-02-19T10:00:09.097Z,27.10
2018-02-19T10:02:35.699Z,27.40
2018-02-19T10:05:02.274Z,27.70
2018-02-19T10:07:28.848Z,27.63
2018-02-19T10:09:55.451Z,25.13
2018-02-19T10:12:22.027Z,25.70
2018-02-19T10:14:48.605Z,26.90
2018-02-19T10:17:15.470Z,24.77
2018-02-19T10:19:42.054Z,30.10
2018-02-19T10:22:08.629Z,27.50
2018-02-19T10:24:35.236Z,28.43
2018-02-19T10:27:01.820Z,25.83
2018-02-19T10:29:28.392Z,27.90
2018-02-19T10:31:54.967Z,28.40
2018-02-19T10:34:21.552Z,29.63
2018-02-19T10:36:48.150Z,28.30
2018-02-19T10:39:14.742Z,28.40
2018-02-19T10:41:41.304Z,28.60
2018-02-19T10:44:07.908Z,28.40
2018-02-19T10:46:34.483Z,28.03
2018-02-19T10:49:01.062Z,26.70
2018-02-19T10:51:27.868Z,29.47
2018-02-19T10:53:54.452Z,27.33
2018-02-19T10:56:21.035Z,27.00
2018-02-19T10:58:47.615Z,29.67
2018-02-19T11:01:14.199Z,29.70
2018-02-19T11:03:40.773Z,27.43
2018-02-19T11:06:07.724Z,30.73
2018-02-19T11:08:35.184Z,29.17
2018-02-19T11:11:01.756Z,28.83
2018-02-19T11:13:28.331Z,27.97
2018-02-19T11:15:54.919Z,28.83
2018-02-19T11:18:21.522Z,29.27
2018-02-19T11:20:48.102Z,29.90
2018-02-19T11:23:14.685Z,29.60
2018-02-19T11:25:41.270Z,29.43
2018-02-19T11:28:07.848Z,28.83
2018-02-19T11:30:34.431Z,30.90
2018-02-19T11:33:01.400Z,29.50
2018-02-19T11:35:27.984Z,30.00
2018-02-19T11:37:54.563Z,30.87
2018-02-19T11:40:21.172Z,29.27
2018-02-19T11:42:47.751Z,30.80
2018-02-19T11:45:14.324Z,29.63
2018-02-19T11:47:40.920Z,31.83
2018-02-19T11:50:07.507Z,33.03
2018-02-19T11:52:34.084Z,29.67
2018-02-19T11:55:00.913Z,31.10
2018-02-19T11:57:27.488Z,31.47
2018-02-19T11:59:54.140Z,30.80
2018-02-19T12:02:20.663Z,29.43
2018-02-19T12:04:47.244Z,31.27
2018-02-19T12:07:13.820Z,31.53
2018-02-19T12:09:40.431Z,30.13
2018-02-19T12:12:07.009Z,31.60
2018-02-19T12:14:33.588Z,30.40
2018-02-19T12:17:00.171Z,31.33
2018-02-19T12:19:26.752Z,32.27
2018-02-19T12:21:53.329Z,31.37
2018-02-19T12:24:19.915Z,30.30
2018-02-19T12:26:46.495Z,29.43
2018-02-19T12:29:13.078Z,33.07
2018-02-19T12:31:39.664Z,31.27
2018-02-19T12:34:06.246Z,31.30
2018-02-19T12:36:32.819Z,28.70
2018-02-19T12:38:59.641Z,29.97
2018-02-19T12:41:26.211Z,30.80
2018-02-19T12:43:52.792Z,28.60
2018-02-19T12:46:19.367Z,29.67
2018-02-19T12:48:45.946Z,28.40
2018-02-19T12:51:12.624Z,28.57
2018-02-19T12:53:39.199Z,29.17
2018-02-19T12:56:05.779Z,29.93
2018-02-19T12:58:32.361Z,29.67
2018-02-19T13:00:58.996Z,28.10
2018-02-19T13:03:25.556Z,29.47
2018-02-19T13:05:52.131Z,29.00
2018-02-19T13:08:18.737Z,29.90
2018-02-19T13:10:45.312Z,28.47
2018-02-19T13:13:11.887Z,27.97
2018-02-19T13:15:38.484Z,32.90
2018-02-19T13:18:05.064Z,33.33
2018-02-19T13:20:31.639Z,30.47
2018-02-19T13:22:58.250Z,28.60
2018-02-19T13:25:24.828Z,28.03
2018-02-19T13:27:51.485Z,29.27
2018-02-19T13:30:18.072Z,29.57
2018-02-19T13:32:44.648Z,28.40
2018-02-19T13:35:11.231Z,28.20
2018-02-19T13:37:37.829Z,28.53
2018-02-19T13:40:04.399Z,28.70
2018-02-19T13:42:30.976Z,27.70
2018-02-19T13:44:57.790Z,27.57
2018-02-19T13:47:24.418Z,29.17
2018-02-19T13:49:50.961Z,27.20
2018-02-19T13:52:17.905Z,27.80
2018-02-19T13:54:44.481Z,30.10
2018-02-19T13:57:11.061Z,33.00
2018-02-19T13:59:38.012Z,29.60
2018-02-19T14:02:04.624Z,30.60
2018-02-19T14:04:31.167Z,27.80
2018-02-19T14:06:57.759Z,25.63
2018-02-19T14:09:24.343Z,27.90
2018-02-19T14:14:24.001Z,27.53
2018-02-19T14:16:50.575Z,27.80
2018-02-19T14:19:17.439Z,27.13
2018-02-19T14:21:44.022Z,26.40
2018-02-19T14:24:10.607Z,25.80
2018-02-19T14:26:37.203Z,27.80
2018-02-19T14:29:03.791Z,28.30
2018-02-19T14:31:30.365Z,26.83
2018-02-19T14:33:56.956Z,27.20
2018-02-19T14:36:23.536Z,28.97
2018-02-19T14:38:50.112Z,27.73
2018-02-19T14:41:16.699Z,25.77
2018-02-19T14:43:43.286Z,25.53
2018-02-19T14:46:09.853Z,28.57
2018-02-19T14:48:36.764Z,26.30
2018-02-19T14:51:03.338Z,27.00
2018-02-19T14:53:29.923Z,31.60
2018-02-19T14:55:56.516Z,32.20
2018-02-19T14:58:23.095Z,29.83
2018-02-19T15:00:49.680Z,29.30
2018-02-19T15:03:16.263Z,28.60
2018-02-19T15:05:42.840Z,30.83
2018-02-19T15:08:09.431Z,29.70
2018-02-19T15:10:36.012Z,30.40
2018-02-19T15:13:02.596Z,29.13
2018-02-19T15:15:29.183Z,33.97
2018-02-19T15:17:55.769Z,29.07
2018-02-19T15:20:22.348Z,27.60
2018-02-19T15:22:48.941Z,28.67
2018-02-19T15:25:15.519Z,27.57
2018-02-19T15:27:42.105Z,27.93
2018-02-19T15:30:08.707Z,27.80
2018-02-19T15:32:35.284Z,61.40
2018-02-19T15:35:01.863Z,44.93
2018-02-19T15:37:28.455Z,27.40
2018-02-19T15:39:55.036Z,28.50
2018-02-19T15:42:21.619Z,26.03
2018-02-19T15:44:48.303Z,27.53
2018-02-19T15:47:14.886Z,26.80
2018-02-19T15:49:41.467Z,27.20
2018-02-19T15:52:08.271Z,28.10
2018-02-19T15:54:34.851Z,27.70
2018-02-19T15:57:01.429Z,26.53
2018-02-19T15:59:28.015Z,27.07
2018-02-19T16:01:54.611Z,28.70
2018-02-19T16:04:21.183Z,26.97
2018-02-19T16:06:47.783Z,29.20
2018-02-19T16:09:14.359Z,29.00
2018-02-19T16:11:41.264Z,26.57
2018-02-19T16:14:07.854Z,28.67
2018-02-19T16:16:34.426Z,27.80
2018-02-19T16:19:01.021Z,28.10
2018-02-19T16:21:27.600Z,28.80
2018-02-19T16:23:54.184Z,29.20
2018-02-19T16:26:20.863Z,27.87
2018-02-19T16:28:47.443Z,28.23
2018-02-19T16:31:14.033Z,101.83
2018-02-19T16:33:40.615Z,78.30
2018-02-19T16:36:07.231Z,38.60
2018-02-19T16:38:33.811Z,29.77
2018-02-19T16:41:00.387Z,29.30
2018-02-19T16:43:27.383Z,26.87
2018-02-19T16:45:53.963Z,27.73
2018-02-19T16:48:20.539Z,30.43
2018-02-19T16:50:47.123Z,27.00
2018-02-19T16:53:13.703Z,29.10
2018-02-19T16:55:40.282Z,28.90
2018-02-19T16:58:06.879Z,32.37
2018-02-19T17:00:33.468Z,98.83
2018-02-19T17:03:00.048Z,61.80
2018-02-19T17:05:26.634Z,42.47
2018-02-19T17:07:53.220Z,34.60
2018-02-19T17:10:19.799Z,32.20
2018-02-19T17:12:46.383Z,31.40
2018-02-19T17:15:12.981Z,29.37
2018-02-19T17:17:39.554Z,29.53
2018-02-19T17:20:06.139Z,29.27
2018-02-19T17:22:32.988Z,30.03
2018-02-19T17:24:59.556Z,29.30
2018-02-19T17:27:26.131Z,29.23
2018-02-19T17:29:52.723Z,29.60
2018-02-19T17:32:19.303Z,31.03
2018-02-19T17:34:45.887Z,31.10
2018-02-19T17:37:12.464Z,32.80
2018-02-19T17:39:39.048Z,33.33
2018-02-19T17:42:05.628Z,33.53
2018-02-19T17:44:32.216Z,32.70
2018-02-19T17:46:58.806Z,32.90
2018-02-19T17:49:25.385Z,33.20
2018-02-19T17:51:51.962Z,32.63
2018-02-19T17:54:18.564Z,35.40
2018-02-19T17:56:45.139Z,35.47
2018-02-19T17:59:11.718Z,35.30
2018-02-19T18:01:38.416Z,36.43
2018-02-19T18:04:04.991Z,36.73
2018-02-19T18:06:31.571Z,35.50
2018-02-19T18:08:58.160Z,34.93
2018-02-19T18:11:24.748Z,34.80
2018-02-19T18:14:00.943Z,32.90
2018-02-19T18:16:27.519Z,36.10
2018-02-19T18:18:54.099Z,36.50
2018-02-19T18:21:20.691Z,31.37
2018-02-19T18:23:47.300Z,33.87
2018-02-19T18:26:13.867Z,31.63
2018-02-19T18:28:40.449Z,30.63
2018-02-19T18:31:07.031Z,31.40
2018-02-19T18:33:33.936Z,32.90
2018-02-19T18:36:01.198Z,31.10
2018-02-19T18:38:27.775Z,31.90
2018-02-19T18:40:54.360Z,34.93
2018-02-19T18:43:20.935Z,31.63
2018-02-19T18:45:47.545Z,31.83
2018-02-19T18:48:14.123Z,32.97
2018-02-19T18:50:40.749Z,35.17
2018-02-19T18:53:08.340Z,39.20
2018-02-19T18:55:34.928Z,41.10
2018-02-19T18:58:01.515Z,33.63
2018-02-19T19:00:28.370Z,31.83
2018-02-19T19:02:54.959Z,32.27
2018-02-19T19:05:21.536Z,30.17
2018-02-19T19:07:53.883Z,31.13
2018-02-19T19:10:26.360Z,30.80
2018-02-19T19:12:52.939Z,32.00
2018-02-19T19:15:19.587Z,29.77
2018-02-19T19:17:46.120Z,30.00
2018-02-19T19:20:12.700Z,30.87
2018-02-19T19:22:39.536Z,31.17
2018-02-19T19:25:06.112Z,32.17
2018-02-19T19:27:32.692Z,31.93
2018-02-19T19:29:59.380Z,32.93
2018-02-19T19:32:26.032Z,31.50
2018-02-19T19:34:52.611Z,30.40
2018-02-19T19:37:19.216Z,32.17
2018-02-19T19:39:45.798Z,32.77
2018-02-19T19:42:12.371Z,32.07
2018-02-19T19:44:38.949Z,34.83
2018-02-19T19:47:05.525Z,31.87
2018-02-19T19:49:32.122Z,30.00
2018-02-19T19:51:58.699Z,32.23
2018-02-19T19:54:25.289Z,31.60
2018-02-19T19:56:51.868Z,34.03
2018-02-19T19:59:18.623Z,33.40
2018-02-19T20:01:45.204Z,31.80
2018-02-19T20:04:11.784Z,31.57
2018-02-19T20:06:38.391Z,33.67
2018-02-19T20:09:04.984Z,33.40
2018-02-19T20:11:31.563Z,34.10
2018-02-19T20:13:58.259Z,31.90
2018-02-19T20:16:24.836Z,31.53
2018-02-19T20:18:51.426Z,33.20
2018-02-19T20:21:18.115Z,31.33
2018-02-19T20:23:45.036Z,32.57
2018-02-19T20:26:11.716Z,32.97
2018-02-19T20:28:38.299Z,32.67
2018-02-19T20:31:04.876Z,34.20
2018-02-19T20:33:31.477Z,33.07
2018-02-19T20:35:58.328Z,32.03
2018-02-19T20:38:24.915Z,35.07
2018-02-19T20:40:51.607Z,32.60
2018-02-19T20:43:18.533Z,34.60
2018-02-19T20:45:45.216Z,33.80
2018-02-19T20:48:11.808Z,30.77
2018-02-19T20:50:38.379Z,31.70
2018-02-19T20:53:04.957Z,37.57
2018-02-19T20:55:32.628Z,33.47
2018-02-19T20:57:59.199Z,34.60
2018-02-19T21:00:26.000Z,34.57
2018-02-19T21:02:52.600Z,35.13
2018-02-19T21:05:19.177Z,42.00
2018-02-19T21:07:45.747Z,38.23
2018-02-19T21:10:12.335Z,35.60
2018-02-19T21:12:38.919Z,32.87
2018-02-19T21:15:05.779Z,35.00
2018-02-19T21:17:32.358Z,33.97
2018-02-19T21:19:58.939Z,32.07
2018-02-19T21:22:25.526Z,33.93
2018-02-19T21:24:52.124Z,31.33
2018-02-19T21:27:18.716Z,32.87
2018-02-19T21:29:45.308Z,35.10
2018-02-19T21:32:11.888Z,34.13
2018-02-19T21:34:38.472Z,32.90
2018-02-19T21:37:05.054Z,33.80
2018-02-19T21:39:31.655Z,35.60
2018-02-19T21:41:58.231Z,32.87
2018-02-19T21:44:24.811Z,32.40
2018-02-19T21:46:51.393Z,31.20
2018-02-19T21:49:17.981Z,31.90
2018-02-19T21:51:44.559Z,33.20
2018-02-19T21:54:11.131Z,32.03
2018-02-19T21:56:37.725Z,31.83
2018-02-19T21:59:04.308Z,30.83
2018-02-19T22:01:30.891Z,32.30
2018-02-19T22:03:57.471Z,32.10
2018-02-19T22:06:24.048Z,31.00
2018-02-19T22:08:50.655Z,32.40
2018-02-19T22:11:17.234Z,31.77
2018-02-19T22:13:43.807Z,30.80
2018-02-19T22:16:10.410Z,32.20
2018-02-19T22:18:36.982Z,33.67
2018-02-19T22:21:03.564Z,32.13
2018-02-19T22:23:30.176Z,33.20
2018-02-19T22:25:56.754Z,31.50
2018-02-19T22:28:23.378Z,71.20
2018-02-19T22:30:49.937Z,89.23
2018-02-19T22:33:16.515Z,69.80
2018-02-19T22:35:43.096Z,33.77
2018-02-19T22:38:09.704Z,32.70
2018-02-19T22:40:36.275Z,32.40
2018-02-19T22:43:02.853Z,29.30
2018-02-19T22:45:29.802Z,32.23
2018-02-19T22:47:56.381Z,32.73
2018-02-19T22:50:22.959Z,33.60
2018-02-19T22:52:49.553Z,32.97
2018-02-19T22:55:16.127Z,34.10
2018-02-19T22:57:42.717Z,30.97
2018-02-19T23:00:09.311Z,32.40
2018-02-19T23:02:35.895Z,35.30
2018-02-19T23:05:02.471Z,31.87
2018-02-19T23:07:29.056Z,32.13
2018-02-19T23:09:55.635Z,32.90
2018-02-19T23:12:22.236Z,31.63
2018-02-19T23:14:48.815Z,33.40
2018-02-19T23:17:15.379Z,31.00
2018-02-19T23:19:41.962Z,31.90
2018-02-19T23:22:08.543Z,34.43
2018-02-19T23:24:35.464Z,34.40
2018-02-19T23:27:02.041Z,32.70
2018-02-19T23:29:28.620Z,34.47
2018-02-19T23:31:55.220Z,33.30
2018-02-19T23:34:21.800Z,34.70
2018-02-19T23:36:48.368Z,32.73
2018-02-19T23:39:14.970Z,34.05
2018-02-19T23:41:41.555Z,34.50
2018-02-19T23:44:08.148Z,32.83
2018-02-19T23:46:34.745Z,33.28
2018-02-19T23:49:01.343Z,33.10
2018-02-19T23:51:27.919Z,34.50
2018-02-19T23:53:55.007Z,32.40
2018-02-19T23:56:21.930Z,62.43
2018-02-19T23:58:48.526Z,62.53
